Agate, Colorado
Current Conditions -  °F | °C
As of 6:55 AM on Thursday 29 Jan 2015 (Local Time) from KLIC Reporting Station
Overcast Overcast  
Wind Chill: 25°   Ceiling: 9500
Heat Index: 33°   Visibility: 10mi
Dew Point: 26°   Wind: 9mph
Humidity: 75%   Direction: 330°NNW
Pressure: 30.45"   Gusts: NA
Location:  39.46°N, 103.94°W
Report Text: KLIC 291355Z AUTO 33008KT 10SM OVC095 01/M03 A3045 RMK AO2 SLP315 T00061033
Loading
Personal Weather Stations






























Interactive Weather Map New forecast layout! Learn more

10-Day Weather Forecast

Advertisements
Track Severe Weather on mobile